Time;durP1;ratioP1;P1;durP2;ratioP2;P2;SDS_P1;SDS_P2;PMS_P1;PMS_P2;Temp;Humidity;BMP_temperature;BMP_pressure;BME280_temperature;BME280_humidity;BME280_pressure;Samples;Min_cycle;Max_cycle;Signal;HPM_P1;HPM_P2
2022/03/07 00:01:27;;;;;;;6.82;6.22;;;;;;;1.08;76.88;94595.03;5116816;28;20613;-64
2022/03/07 00:03:54;;;;;;;7.32;6.63;;;;;;;1.15;77.03;94601.63;5117171;28;20207;-64
2022/03/07 00:06:21;;;;;;;7.28;6.57;;;;;;;1.05;76.98;94611.91;5099353;28;20192;-64
2022/03/07 00:08:49;;;;;;;8.07;7.38;;;;;;;0.82;78.08;94606.41;5116997;28;20535;-64
2022/03/07 00:11:16;;;;;;;7.57;6.88;;;;;;;0.71;79.01;94605.81;5099091;28;20237;-64
2022/03/07 00:13:42;;;;;;;7.95;7.20;;;;;;;0.86;78.93;94606.63;5116952;28;20192;-64
2022/03/07 00:16:11;;;;;;;7.72;7.03;;;;;;;0.84;78.26;94603.41;5098614;28;20291;-64
2022/03/07 00:18:38;;;;;;;7.45;6.75;;;;;;;0.81;78.65;94593.16;5099003;28;20252;-64
2022/03/07 00:21:06;;;;;;;7.05;6.45;;;;;;;0.80;78.71;94597.78;5116762;28;20193;-64
2022/03/07 00:23:34;;;;;;;6.88;6.28;;;;;;;0.91;78.53;94593.75;5098893;28;20188;-64
2022/03/07 00:26:00;;;;;;;6.60;6.00;;;;;;;1.04;78.09;94583.16;5116698;28;20196;-64
2022/03/07 00:28:27;;;;;;;7.07;6.40;;;;;;;1.16;77.72;94589.69;5116777;28;20208;-64
2022/03/07 00:30:54;;;;;;;6.95;6.35;;;;;;;1.17;77.09;94582.34;5098497;28;20295;-64
2022/03/07 00:33:22;;;;;;;7.18;6.47;;;;;;;1.18;77.31;94579.31;5116538;28;20180;-64
2022/03/07 00:35:49;;;;;;;6.97;6.38;;;;;;;1.26;77.04;94583.22;5116456;28;20176;-64
2022/03/07 00:38:16;;;;;;;7.28;6.57;;;;;;;1.24;76.94;94574.56;5097956;28;20188;-64
2022/03/07 00:40:43;;;;;;;6.75;6.15;;;;;;;1.12;77.12;94580.50;5132628;27;20196;-64
2022/03/07 00:43:10;;;;;;;6.75;6.15;;;;;;;1.11;77.10;94573.47;5115773;28;20235;-64
2022/03/07 00:45:37;;;;;;;6.93;6.32;;;;;;;1.06;77.75;94578.25;5116384;28;20184;-64
2022/03/07 00:48:04;;;;;;;7.13;6.53;;;;;;;0.94;77.57;94576.03;5098362;28;20226;-64
2022/03/07 00:50:32;;;;;;;7.22;6.53;;;;;;;1.02;77.84;94585.38;5116269;28;20210;-64
2022/03/07 00:52:59;;;;;;;6.65;6.10;;;;;;;1.11;77.43;94583.53;5116032;28;20196;-64
2022/03/07 00:55:26;;;;;;;6.85;6.25;;;;;;;1.14;77.68;94581.03;5115770;28;20570;-64
2022/03/07 00:57:53;;;;;;;7.47;6.78;;;;;;;1.15;77.63;94582.63;5116093;28;20183;-64
2022/03/07 01:00:20;;;;;;;8.02;7.32;;;;;;;1.25;76.83;94588.97;5115771;28;20196;-64
2022/03/07 01:02:47;;;;;;;8.57;7.68;;;;;;;1.31;76.79;94585.81;5116023;28;20194;-64
2022/03/07 01:05:13;;;;;;;8.98;8.10;;;;;;;1.34;76.34;94585.19;5097990;28;20192;-64
2022/03/07 01:07:42;;;;;;;9.10;8.20;;;;;;;1.33;75.82;94578.16;5115811;28;20211;-64
2022/03/07 01:10:09;;;;;;;9.43;8.52;;;;;;;1.27;76.12;94565.81;5115585;28;20192;-64
2022/03/07 01:12:37;;;;;;;8.23;7.53;;;;;;;1.19;76.05;94564.59;5115963;28;20176;-64
2022/03/07 01:15:05;;;;;;;8.20;7.50;;;;;;;1.18;76.72;94565.72;5115829;28;20188;-64
2022/03/07 01:17:32;;;;;;;8.15;7.45;;;;;;;1.15;76.38;94565.53;5115454;28;20261;-63
2022/03/07 01:19:59;;;;;;;8.18;7.38;;;;;;;1.29;76.42;94563.56;5097903;28;20199;-63
2022/03/07 01:22:26;;;;;;;8.50;7.70;;;;;;;1.36;76.33;94563.16;5115748;28;20232;-64
2022/03/07 01:24:54;;;;;;;8.05;7.38;;;;;;;1.42;76.23;94557.31;5097637;28;20195;-64
2022/03/07 01:27:21;;;;;;;9.00;8.20;;;;;;;1.49;75.98;94558.78;5115332;28;20195;-64
2022/03/07 01:29:48;;;;;;;8.30;7.60;;;;;;;1.53;75.95;94557.88;5115221;28;20214;-64
2022/03/07 01:32:14;;;;;;;8.82;8.13;;;;;;;1.56;75.87;94554.53;5115513;28;20180;-64
2022/03/07 01:34:41;;;;;;;8.15;7.43;;;;;;;1.56;75.80;94538.22;5115397;28;20184;-64
2022/03/07 01:37:08;;;;;;;8.23;7.53;;;;;;;1.58;75.53;94551.50;5115471;28;20190;-64
2022/03/07 01:39:35;;;;;;;8.02;7.32;;;;;;;1.51;75.60;94551.13;5097741;28;20192;-64
2022/03/07 01:42:04;;;;;;;6.68;6.07;;;;;;;1.45;75.47;94550.44;5097429;28;20241;-64
2022/03/07 01:44:31;;;;;;;6.65;6.07;;;;;;;1.40;75.44;94554.09;5115477;28;20184;-64
2022/03/07 01:46:58;;;;;;;7.00;6.40;;;;;;;1.40;75.75;94548.66;5097190;28;20199;-64
2022/03/07 01:49:26;;;;;;;7.10;6.45;;;;;;;1.48;75.44;94552.53;5117292;27;20644;-64
2022/03/07 01:51:53;;;;;;;6.35;5.85;;;;;;;1.48;75.60;94547.09;5102178;28;20196;-64
2022/03/07 01:54:21;;;;;;;6.40;5.90;;;;;;;1.46;75.38;94553.97;5101793;28;20202;-64
2022/03/07 01:56:50;;;;;;;6.38;5.88;;;;;;;1.45;75.60;94547.72;5101929;28;20209;-64
2022/03/07 01:59:20;;;;;;;6.13;5.63;;;;;;;1.46;75.71;94554.78;5119197;28;20179;-64
2022/03/07 02:01:47;;;;;;;5.80;5.30;;;;;;;1.47;75.61;94550.94;5101543;28;20203;-64
2022/03/07 02:04:14;;;;;;;5.95;5.45;;;;;;;1.50;75.67;94549.53;5101919;28;20204;-64
2022/03/07 02:06:41;;;;;;;6.47;6.00;;;;;;;1.50;75.23;94549.53;5101598;28;20195;-64
2022/03/07 02:09:08;;;;;;;5.40;5.00;;;;;;;1.54;75.13;94548.59;5101035;28;20306;-64
2022/03/07 02:11:35;;;;;;;6.30;5.80;;;;;;;1.55;74.96;94538.53;5101078;28;20200;-64
2022/03/07 02:14:11;;;;;;;6.30;5.80;;;;;;;1.53;75.19;94548.91;5119113;28;20183;-64
2022/03/07 02:16:39;;;;;;;6.03;5.53;;;;;;;1.54;74.91;94548.59;5101376;28;20291;-64
2022/03/07 02:19:06;;;;;;;6.07;5.57;;;;;;;1.56;74.95;94554.53;5101136;28;20259;-64
2022/03/07 02:21:34;;;;;;;5.82;5.40;;;;;;;1.54;75.19;94554.03;5119195;28;20265;-64
2022/03/07 02:24:02;;;;;;;5.68;5.18;;;;;;;1.56;74.96;94553.72;5101242;28;20616;-64
2022/03/07 02:26:29;;;;;;;5.60;5.18;;;;;;;1.59;75.03;94550.38;5119087;28;20200;-64
2022/03/07 02:28:56;;;;;;;5.55;5.15;;;;;;;1.50;74.69;94565.84;5101179;28;20212;-64
2022/03/07 02:31:23;;;;;;;5.47;5.07;;;;;;;1.57;74.97;94558.06;5100918;28;20198;-64
2022/03/07 02:33:50;;;;;;;5.80;5.35;;;;;;;1.62;74.52;94561.44;5118933;28;20195;-64
2022/03/07 02:36:17;;;;;;;5.70;5.30;;;;;;;1.59;74.51;94551.19;5118959;28;20195;-64
2022/03/07 02:38:43;;;;;;;6.00;5.60;;;;;;;1.55;74.79;94558.34;5100925;28;20206;-64
2022/03/07 02:41:12;;;;;;;5.40;5.00;;;;;;;1.55;74.93;94557.56;5118338;28;20199;-64
2022/03/07 02:43:39;;;;;;;5.85;5.45;;;;;;;1.58;75.06;94555.03;5101337;28;20235;-64
2022/03/07 02:46:05;;;;;;;5.32;4.93;;;;;;;1.60;74.60;94557.44;5118719;28;20184;-64
2022/03/07 02:48:32;;;;;;;5.72;5.22;;;;;;;1.55;74.60;94554.84;5118401;28;20214;-64
2022/03/07 02:50:59;;;;;;;5.53;5.13;;;;;;;1.54;75.18;94556.75;5118181;28;20533;-64
2022/03/07 02:53:26;;;;;;;5.28;4.90;;;;;;;1.55;74.83;94566.50;5100520;28;20206;-64
2022/03/07 02:55:53;;;;;;;6.10;5.50;;;;;;;1.56;74.87;94557.25;5100757;28;20628;-64
2022/03/07 02:58:21;;;;;;;5.50;5.10;;;;;;;1.55;74.96;94560.28;5118632;28;20202;-64
2022/03/07 03:00:48;;;;;;;5.55;5.10;;;;;;;1.58;75.24;94565.09;5117650;28;20202;-64
2022/03/07 03:03:15;;;;;;;5.47;5.07;;;;;;;1.55;75.33;94565.72;5100402;28;20203;-64
2022/03/07 03:05:41;;;;;;;5.30;4.90;;;;;;;1.51;74.88;94560.09;5100696;28;20201;-64
2022/03/07 03:08:09;;;;;;;5.55;5.15;;;;;;;1.51;75.29;94567.44;5134457;27;20552;-64
2022/03/07 03:10:36;;;;;;;5.30;4.90;;;;;;;1.44;75.54;94565.94;5118026;28;20180;-64
2022/03/07 03:13:03;;;;;;;5.65;5.15;;;;;;;1.44;75.85;94567.84;5118196;28;20272;-64
2022/03/07 03:15:31;;;;;;;5.07;4.68;;;;;;;1.46;76.08;94571.09;5117988;28;20202;-64
2022/03/07 03:17:58;;;;;;;5.68;5.18;;;;;;;1.48;75.86;94565.31;5100501;28;20210;-64
2022/03/07 03:20:25;;;;;;;5.40;5.00;;;;;;;1.48;76.02;94577.00;5117680;28;20180;-64
2022/03/07 03:22:52;;;;;;;5.40;4.90;;;;;;;1.51;75.77;94570.16;5118098;28;20180;-64
2022/03/07 03:25:18;;;;;;;5.43;5.03;;;;;;;1.50;76.12;94574.78;5099935;28;20211;-64
2022/03/07 03:27:45;;;;;;;6.47;5.97;;;;;;;1.52;76.08;94579.91;5117855;28;20195;-64
2022/03/07 03:30:13;;;;;;;7.20;6.60;;;;;;;1.54;76.24;94573.06;5100192;28;20212;-64
2022/03/07 03:32:41;;;;;;;6.72;6.13;;;;;;;1.53;76.20;94579.63;5100155;28;20196;-64
2022/03/07 03:35:09;;;;;;;7.13;6.53;;;;;;;1.52;76.11;94572.56;5117704;28;20194;-64
2022/03/07 03:37:36;;;;;;;7.57;6.85;;;;;;;1.55;75.98;94571.16;5117743;28;20179;-64
2022/03/07 03:40:04;;;;;;;5.97;5.47;;;;;;;1.57;76.15;94579.81;5117660;28;20202;-64
2022/03/07 03:42:31;;;;;;;6.00;5.50;;;;;;;1.57;75.99;94571.66;5117581;28;20247;-64
2022/03/07 03:44:58;;;;;;;5.88;5.47;;;;;;;1.58;76.05;94571.34;5117600;28;20191;-64
2022/03/07 03:47:24;;;;;;;6.10;5.60;;;;;;;1.58;75.83;94575.97;5117139;28;20536;-63
2022/03/07 03:49:53;;;;;;;5.60;5.20;;;;;;;1.56;76.06;94575.47;5117845;28;20203;-63
2022/03/07 03:52:20;;;;;;;5.53;5.13;;;;;;;1.54;75.99;94577.69;5099502;28;20195;-64
2022/03/07 03:54:46;;;;;;;5.78;5.38;;;;;;;1.52;76.35;94580.72;5099437;28;20612;-64
2022/03/07 03:57:13;;;;;;;6.25;5.75;;;;;;;1.53;76.35;94581.53;5117290;28;20184;-63
2022/03/07 03:59:40;;;;;;;5.68;5.28;;;;;;;1.57;75.89;94577.88;5117220;28;20195;-64
2022/03/07 04:02:07;;;;;;;5.70;5.30;;;;;;;1.56;76.03;94580.91;5117009;28;20180;-63
2022/03/07 04:04:34;;;;;;;5.72;5.25;;;;;;;1.56;76.20;94581.72;5117207;28;20188;-64
2022/03/07 04:07:02;;;;;;;5.20;4.80;;;;;;;1.60;75.73;94579.19;5117207;28;20192;-64
2022/03/07 04:09:29;;;;;;;6.05;5.55;;;;;;;1.57;75.94;94582.53;5116609;28;20211;-63
2022/03/07 04:11:56;;;;;;;5.43;4.93;;;;;;;1.55;75.95;94584.72;5116212;28;20188;-63
2022/03/07 04:14:23;;;;;;;5.60;5.20;;;;;;;1.53;75.77;94585.06;5116504;28;20191;-64
2022/03/07 04:16:49;;;;;;;5.30;4.90;;;;;;;1.48;75.81;94582.44;5099140;28;20542;-64
2022/03/07 04:19:16;;;;;;;5.03;4.63;;;;;;;1.46;76.22;94573.81;5116474;28;20202;-64
2022/03/07 04:21:44;;;;;;;5.68;5.18;;;;;;;1.48;76.67;94590.59;5098628;28;20200;-64
2022/03/07 04:24:13;;;;;;;5.30;4.90;;;;;;;1.51;76.19;94587.25;5098867;28;20257;-64
2022/03/07 04:26:40;;;;;;;5.82;5.43;;;;;;;1.54;76.21;94588.56;5098467;28;20202;-64
2022/03/07 04:29:08;;;;;;;5.43;5.03;;;;;;;1.51;76.45;94583.75;5116632;28;20211;-64
2022/03/07 04:31:35;;;;;;;6.30;5.80;;;;;;;1.53;76.38;94587.78;5116325;28;20191;-64
2022/03/07 04:34:02;;;;;;;5.72;5.28;;;;;;;1.50;76.42;94590.31;5132502;27;20191;-64
2022/03/07 04:36:28;;;;;;;6.25;5.72;;;;;;;1.51;76.22;94587.25;5116438;28;20219;-64
2022/03/07 04:38:55;;;;;;;5.57;5.18;;;;;;;1.56;75.80;94586.34;5098588;28;20199;-64
2022/03/07 04:41:23;;;;;;;5.90;5.40;;;;;;;1.58;75.87;94584.13;5098325;28;20673;-64
2022/03/07 04:43:50;;;;;;;5.32;4.93;;;;;;;1.57;75.30;94591.47;5077347;28;20229;-64
2022/03/07 04:46:17;;;;;;;5.53;5.13;;;;;;;1.62;75.34;94585.91;5075567;28;20195;-64
2022/03/07 04:48:44;;;;;;;5.45;5.05;;;;;;;1.67;75.39;94583.09;5074793;28;20540;-64
2022/03/07 04:51:11;;;;;;;5.80;5.32;;;;;;;1.67;75.12;94583.09;5075504;28;20519;-63
2022/03/07 04:53:37;;;;;;;5.75;5.35;;;;;;;1.67;75.00;94587.69;5075245;28;20197;-63
2022/03/07 04:56:05;;;;;;;6.60;6.10;;;;;;;1.62;75.32;94585.09;5074679;28;20197;-63
2022/03/07 04:58:33;;;;;;;6.07;5.57;;;;;;;1.64;75.18;94582.91;5074581;28;20207;-63
2022/03/07 05:01:00;;;;;;;7.95;7.35;;;;;;;1.66;75.40;94588.81;5075414;28;20173;-63
2022/03/07 05:03:27;;;;;;;13.65;12.50;;;;;;;1.60;75.66;94584.63;5075339;28;20196;-64
2022/03/07 05:05:54;;;;;;;15.65;14.25;;;;;;;1.51;75.99;94584.53;5075538;28;20200;-64
2022/03/07 05:08:20;;;;;;;15.48;14.10;;;;;;;1.46;76.38;94586.59;5075389;28;20190;-64
2022/03/07 05:10:47;;;;;;;16.10;14.80;;;;;;;1.43;76.27;94588.81;5075065;28;20205;-64
2022/03/07 05:13:14;;;;;;;17.00;15.60;;;;;;;1.47;75.75;94586.28;5074368;28;20216;-64
2022/03/07 05:15:43;;;;;;;19.47;17.87;;;;;;;1.46;75.64;94592.81;5075282;28;20734;-65
2022/03/07 05:18:09;;;;;;;20.70;18.90;;;;;;;1.52;75.31;94597.00;5074050;28;20442;-65
2022/03/07 05:20:36;;;;;;;16.33;14.73;;;;;;;1.56;75.08;94595.31;5075110;28;20209;-64
2022/03/07 05:23:03;;;;;;;15.48;14.07;;;;;;;1.55;74.99;94593.69;5074999;28;20200;-64
2022/03/07 05:25:30;;;;;;;13.95;12.75;;;;;;;1.53;75.05;94589.69;5074626;28;20503;-64
2022/03/07 05:27:56;;;;;;;14.32;13.13;;;;;;;1.48;75.16;94595.22;5075108;28;20504;-65
2022/03/07 05:30:24;;;;;;;15.85;14.48;;;;;;;1.44;75.13;94584.16;5074978;28;20231;-65
2022/03/07 05:32:53;;;;;;;15.80;14.50;;;;;;;1.39;75.10;94587.81;5075036;28;20232;-65
2022/03/07 05:35:21;;;;;;;15.20;13.98;;;;;;;1.40;75.00;94583.16;5074976;28;20204;-65
2022/03/07 05:37:48;;;;;;;17.15;15.43;;;;;;;1.43;74.62;94591.53;5074992;28;20185;-65
2022/03/07 05:40:15;;;;;;;15.82;14.35;;;;;;;1.43;74.91;94594.22;5075118;28;20197;-64
2022/03/07 05:42:42;;;;;;;16.30;14.77;;;;;;;1.39;75.00;94589.72;5092688;28;20235;-65
2022/03/07 05:45:12;;;;;;;18.52;16.83;;;;;;;1.38;74.97;94597.09;5114573;28;20184;-64
2022/03/07 05:47:39;;;;;;;16.27;14.77;;;;;;;1.42;74.83;94594.56;5114859;28;20207;-64
2022/03/07 05:50:09;;;;;;;34.13;31.33;;;;;;;1.41;74.94;94592.94;5114951;28;20222;-65
2022/03/07 05:52:36;;;;;;;20.75;19.02;;;;;;;1.40;74.99;94592.13;5115526;28;20257;-65
2022/03/07 05:55:03;;;;;;;20.25;18.40;;;;;;;1.41;75.06;94596.44;5115526;28;20323;-65
2022/03/07 05:57:29;;;;;;;17.75;16.00;;;;;;;1.42;74.81;94597.28;5114502;28;20277;-65
2022/03/07 05:59:56;;;;;;;17.63;15.98;;;;;;;1.40;74.74;94594.84;5115498;28;20188;-66
2022/03/07 06:02:23;;;;;;;16.38;14.88;;;;;;;1.38;75.50;94591.66;5115454;28;20191;-65
2022/03/07 06:04:50;;;;;;;17.90;16.33;;;;;;;1.37;75.50;94595.44;5114559;28;20192;-65
2022/03/07 06:07:18;;;;;;;17.88;16.35;;;;;;;1.37;75.16;94605.53;5114125;28;20218;-65
2022/03/07 06:09:45;;;;;;;18.52;17.00;;;;;;;1.36;75.76;94591.13;5115282;28;20203;-65
2022/03/07 06:12:11;;;;;;;20.23;18.52;;;;;;;1.34;75.46;94595.25;5114113;28;20627;-65
2022/03/07 06:14:38;;;;;;;28.08;25.73;;;;;;;1.37;75.44;94597.38;5114392;28;20205;-65
2022/03/07 06:17:05;;;;;;;28.75;26.40;;;;;;;1.37;75.45;94595.44;5115281;28;20192;-65
2022/03/07 06:19:32;;;;;;;26.90;24.70;;;;;;;1.42;75.19;94602.72;5114310;28;20224;-65
2022/03/07 06:21:59;;;;;;;18.52;17.02;;;;;;;1.48;74.99;94603.38;5115310;28;20198;-66
2022/03/07 06:24:29;;;;;;;14.13;13.02;;;;;;;1.54;74.57;94596.72;5114883;28;20196;-65
2022/03/07 06:26:57;;;;;;;11.70;10.90;;;;;;;1.56;74.48;94602.63;5114277;28;20610;-65
2022/03/07 06:29:24;;;;;;;11.40;10.50;;;;;;;1.61;74.43;94602.53;5114649;28;20667;-65
2022/03/07 06:31:51;;;;;;;12.80;11.70;;;;;;;1.58;74.44;94606.66;5114471;28;20521;-65
2022/03/07 06:34:18;;;;;;;12.70;11.60;;;;;;;1.56;74.44;94600.75;5115043;28;20654;-65
2022/03/07 06:36:44;;;;;;;12.02;11.02;;;;;;;1.56;74.47;94605.34;5116827;28;20203;-65
2022/03/07 06:39:11;;;;;;;12.48;11.43;;;;;;;1.53;74.49;94603.28;5118519;28;20190;-65
2022/03/07 06:41:40;;;;;;;13.77;12.68;;;;;;;1.53;73.92;94606.81;5117627;28;20209;-65
2022/03/07 06:44:06;;;;;;;16.48;15.18;;;;;;;1.53;74.25;94606.00;5118271;28;20447;-64
2022/03/07 06:46:33;;;;;;;14.90;13.68;;;;;;;1.57;74.28;94607.78;5118701;28;20225;-64
2022/03/07 06:49:00;;;;;;;14.80;13.60;;;;;;;1.55;74.53;94601.03;5117542;28;20199;-65
2022/03/07 06:51:27;;;;;;;19.10;17.50;;;;;;;1.52;74.41;94598.94;5118469;28;20211;-65
2022/03/07 06:53:54;;;;;;;16.25;14.95;;;;;;;1.55;74.74;94603.75;5118671;28;20176;-65
2022/03/07 06:56:21;;;;;;;20.20;18.40;;;;;;;1.59;74.64;94600.09;5118676;27;20206;-65
2022/03/07 06:58:49;;;;;;;22.48;20.48;;;;;;;1.62;74.69;94607.66;5117713;28;20198;-65
2022/03/07 07:01:16;;;;;;;24.98;22.58;;;;;;;1.68;74.25;94597.47;5118006;28;20176;-65
2022/03/07 07:03:42;;;;;;;23.65;21.35;;;;;;;1.71;73.96;94602.31;5117341;28;20229;-65
2022/03/07 07:06:09;;;;;;;20.48;18.48;;;;;;;1.74;73.67;94601.66;5117592;28;20199;-65
2022/03/07 07:08:36;;;;;;;19.45;17.63;;;;;;;1.76;73.66;94610.34;5118387;28;20184;-65
2022/03/07 07:11:02;;;;;;;19.52;17.83;;;;;;;1.77;73.89;94609.22;5116916;28;20281;-65
2022/03/07 07:13:29;;;;;;;22.55;20.52;;;;;;;1.76;74.32;94607.59;5117353;28;20200;-65
2022/03/07 07:15:58;;;;;;;24.98;22.70;;;;;;;1.80;74.38;94608.59;5118333;28;20198;-65
2022/03/07 07:18:25;;;;;;;19.17;17.67;;;;;;;1.82;73.96;94603.66;5117895;28;20180;-65
2022/03/07 07:20:52;;;;;;;17.42;16.02;;;;;;;1.83;73.52;94605.25;5117127;28;20298;-65
2022/03/07 07:23:19;;;;;;;14.27;13.07;;;;;;;1.84;73.63;94614.22;5117830;28;20202;-65
2022/03/07 07:25:47;;;;;;;11.65;10.70;;;;;;;1.87;73.10;94614.41;5118180;28;20194;-65
2022/03/07 07:28:13;;;;;;;10.93;10.02;;;;;;;1.89;73.09;94611.41;5117301;28;20210;-65
2022/03/07 07:30:40;;;;;;;12.48;11.27;;;;;;;1.85;73.43;94613.94;5117941;28;20207;-65
2022/03/07 07:33:09;;;;;;;13.38;12.27;;;;;;;1.78;73.83;94615.44;5117822;28;20188;-64
2022/03/07 07:35:36;;;;;;;14.18;12.98;;;;;;;1.78;73.86;94613.56;5116814;28;20200;-65
2022/03/07 07:38:04;;;;;;;14.43;13.32;;;;;;;1.78;73.70;94623.59;5117311;28;20183;-65
2022/03/07 07:40:31;;;;;;;16.15;14.75;;;;;;;1.81;73.63;94625.72;5116847;28;20198;-65
2022/03/07 07:42:58;;;;;;;13.60;12.30;;;;;;;1.84;73.41;94625.91;5117869;28;20235;-64
2022/03/07 07:45:25;;;;;;;10.93;9.93;;;;;;;1.83;73.28;94628.94;5116437;28;20184;-64
2022/03/07 07:47:52;;;;;;;12.07;11.05;;;;;;;1.80;73.46;94627.63;5116500;28;20192;-64
2022/03/07 07:50:20;;;;;;;12.70;11.63;;;;;;;1.84;73.37;94625.09;5117520;28;20208;-64
2022/03/07 07:52:47;;;;;;;15.00;13.80;;;;;;;1.87;73.38;94630.72;5116567;28;20208;-64
2022/03/07 07:55:14;;;;;;;17.88;16.38;;;;;;;1.83;73.57;94632.47;5116498;28;20214;-64
2022/03/07 07:57:41;;;;;;;18.42;16.83;;;;;;;1.85;73.75;94630.25;5117066;28;20190;-64
2022/03/07 08:00:10;;;;;;;16.98;15.50;;;;;;;1.88;74.16;94636.97;5116608;28;20198;-64
2022/03/07 08:02:36;;;;;;;14.20;12.90;;;;;;;1.89;74.06;94633.16;5117274;28;20255;-64
2022/03/07 08:05:04;;;;;;;13.52;12.32;;;;;;;1.87;73.83;94636.16;5117268;28;20255;-65
2022/03/07 08:07:34;;;;;;;13.98;12.80;;;;;;;1.91;74.28;94631.72;5116264;28;20256;-65
2022/03/07 08:10:01;;;;;;;13.68;12.48;;;;;;;1.93;74.20;94626.78;5117060;28;20207;-64
2022/03/07 08:12:27;;;;;;;14.77;13.57;;;;;;;1.98;73.76;94623.13;5117061;28;20199;-65
2022/03/07 08:14:54;;;;;;;14.75;13.43;;;;;;;2.00;73.94;94628.25;5116123;28;20206;-65
2022/03/07 08:17:21;;;;;;;15.52;14.10;;;;;;;2.00;73.69;94634.50;5116701;28;20192;-65
2022/03/07 08:19:48;;;;;;;15.85;14.55;;;;;;;2.02;73.56;94637.72;5117042;28;20188;-64
2022/03/07 08:22:15;;;;;;;16.08;14.75;;;;;;;2.03;73.88;94633.88;5116163;28;20203;-64
2022/03/07 08:24:43;;;;;;;19.65;17.92;;;;;;;2.03;73.66;94635.78;5117467;28;20204;-65
2022/03/07 08:27:10;;;;;;;16.75;15.35;;;;;;;2.08;73.50;94635.69;5117509;28;20195;-65
2022/03/07 08:29:36;;;;;;;18.08;16.48;;;;;;;2.06;73.62;94637.91;5116980;28;20184;-64
2022/03/07 08:32:04;;;;;;;17.58;15.88;;;;;;;2.08;73.29;94644.66;5116790;28;20200;-65
2022/03/07 08:34:31;;;;;;;18.10;16.50;;;;;;;2.14;73.53;94640.69;5116788;28;20199;-65
2022/03/07 08:36:58;;;;;;;20.85;18.85;;;;;;;2.16;73.26;94652.06;5116288;28;20655;-65
2022/03/07 08:39:25;;;;;;;16.98;15.45;;;;;;;2.18;73.07;94640.88;5115574;28;20202;-65
2022/03/07 08:41:54;;;;;;;16.02;14.32;;;;;;;2.13;72.50;94641.00;5116280;28;20261;-65
2022/03/07 08:44:20;;;;;;;15.23;13.80;;;;;;;2.10;73.20;94645.13;5116528;28;20198;-65
2022/03/07 08:46:47;;;;;;;15.15;13.75;;;;;;;2.18;72.51;94646.31;5116480;28;20184;-65
2022/03/07 08:49:14;;;;;;;12.57;11.52;;;;;;;2.22;71.82;94643.78;5116250;28;20184;-64
2022/03/07 08:51:43;;;;;;;13.45;12.25;;;;;;;2.16;72.29;94643.91;5116027;28;20229;-64
2022/03/07 08:54:10;;;;;;;11.13;10.23;;;;;;;2.18;72.28;94654.50;5116304;28;20192;-64
2022/03/07 08:56:37;;;;;;;10.68;9.77;;;;;;;2.21;72.22;94645.69;5116276;27;20190;-68
2022/03/07 08:59:05;;;;;;;12.82;11.73;;;;;;;2.26;71.79;94645.56;5114358;28;20199;-65
2022/03/07 09:01:32;;;;;;;12.70;11.50;;;;;;;2.27;72.06;94649.09;5116169;28;20188;-65
2022/03/07 09:03:58;;;;;;;15.90;14.40;;;;;;;2.30;71.61;94648.47;5115933;28;20188;-64
2022/03/07 09:06:25;;;;;;;16.27;14.77;;;;;;;2.30;71.67;94649.28;5116133;28;20184;-64
2022/03/07 09:08:52;;;;;;;18.55;16.83;;;;;;;2.33;71.67;94647.84;5115378;28;20207;-64
2022/03/07 09:11:19;;;;;;;17.60;16.10;;;;;;;2.37;71.84;94649.63;5115101;28;20215;-64
2022/03/07 09:13:46;;;;;;;21.05;19.15;;;;;;;2.33;71.61;94642.41;5116040;28;20184;-65
2022/03/07 09:16:14;;;;;;;21.05;19.20;;;;;;;2.32;71.84;94641.59;5115908;28;20180;-65
2022/03/07 09:18:42;;;;;;;17.50;16.00;;;;;;;2.35;71.70;94651.06;5115700;28;20207;-65
2022/03/07 09:21:09;;;;;;;17.75;16.15;;;;;;;2.33;71.62;94645.94;5115821;28;20194;-64
2022/03/07 09:23:37;;;;;;;18.95;17.35;;;;;;;2.28;71.39;94637.88;5115012;28;20248;-64
2022/03/07 09:26:05;;;;;;;23.92;21.90;;;;;;;2.32;71.94;94648.94;5115003;28;20198;-65
2022/03/07 09:28:33;;;;;;;21.63;19.67;;;;;;;2.35;71.88;94640.16;5115819;28;20188;-65
2022/03/07 09:31:00;;;;;;;19.60;17.90;;;;;;;2.37;71.65;94630.59;5115461;28;20203;-66
2022/03/07 09:33:28;;;;;;;18.58;16.88;;;;;;;2.38;71.43;94631.38;5114725;28;20203;-65
2022/03/07 09:35:55;;;;;;;15.25;14.05;;;;;;;2.42;71.17;94638.59;5115450;28;20180;-65
2022/03/07 09:38:22;;;;;;;13.23;12.13;;;;;;;2.44;70.63;94634.78;5114543;28;20195;-65
2022/03/07 09:40:48;;;;;;;11.45;10.45;;;;;;;2.41;70.14;94631.56;5114740;28;20195;-65
2022/03/07 09:43:16;;;;;;;12.82;11.73;;;;;;;2.47;70.02;94636.88;5114490;28;20228;-66
2022/03/07 09:45:43;;;;;;;13.77;12.48;;;;;;;2.51;69.61;94624.25;5114571;28;20192;-69
2022/03/07 09:48:12;;;;;;;12.55;11.43;;;;;;;2.51;69.99;94629.69;5114463;28;20199;-65
2022/03/07 09:50:40;;;;;;;13.32;11.88;;;;;;;2.51;69.32;94641.41;5115071;28;20636;-65
2022/03/07 09:53:07;;;;;;;12.10;11.10;;;;;;;2.52;69.43;94625.84;5115078;28;20206;-64
2022/03/07 09:55:34;;;;;;;11.13;10.23;;;;;;;2.58;69.38;94624.63;5115268;28;20198;-64
2022/03/07 09:58:01;;;;;;;10.77;9.88;;;;;;;2.54;68.70;94629.06;5114426;28;20206;-64
2022/03/07 10:00:27;;;;;;;10.80;9.82;;;;;;;2.57;69.08;94629.22;5114786;28;20199;-64
2022/03/07 10:02:56;;;;;;;9.88;9.07;;;;;;;2.66;69.23;94615.69;5114807;28;20541;-64
2022/03/07 10:05:23;;;;;;;11.52;10.52;;;;;;;2.70;68.94;94624.03;5114208;28;20244;-65
2022/03/07 10:07:51;;;;;;;11.43;10.40;;;;;;;2.74;69.50;94625.00;5114824;28;20214;-65
2022/03/07 10:10:18;;;;;;;12.00;10.90;;;;;;;2.79;69.06;94624.84;5116957;28;20194;-64
2022/03/07 10:12:46;;;;;;;11.20;10.15;;;;;;;2.81;68.45;94625.34;5118365;28;20283;-64
2022/03/07 10:15:14;;;;;;;13.30;12.07;;;;;;;2.78;68.65;94632.22;5117908;28;20196;-64
2022/03/07 10:17:47;;;;;;;12.88;11.77;;;;;;;2.73;68.33;94631.56;5118291;28;20207;-65
2022/03/07 10:20:15;;;;;;;10.65;9.65;;;;;;;2.74;69.17;94631.25;5118940;28;20209;-64
2022/03/07 10:22:45;;;;;;;9.63;8.73;;;;;;;2.74;67.43;94630.44;5118768;28;20180;-64
2022/03/07 10:25:14;;;;;;;10.52;9.60;;;;;;;2.75;68.59;94624.66;5117885;28;20256;-65
2022/03/07 10:27:46;;;;;;;9.25;8.50;;;;;;;2.76;68.28;94620.84;5117824;28;20588;-65
2022/03/07 10:30:14;;;;;;;9.13;8.32;;;;;;;2.79;67.65;94625.66;5118643;28;20241;-65
2022/03/07 10:32:42;;;;;;;10.82;9.75;;;;;;;2.77;67.87;94625.16;5118567;28;20207;-65
2022/03/07 10:35:11;;;;;;;9.95;8.95;;;;;;;2.76;68.20;94623.56;5117876;28;20203;-65
2022/03/07 10:37:39;;;;;;;8.98;8.10;;;;;;;2.83;68.27;94617.66;5118501;27;20203;-65
2022/03/07 10:40:11;;;;;;;9.95;9.05;;;;;;;2.86;68.30;94626.00;5118507;28;20186;-65
2022/03/07 10:42:45;;;;;;;9.70;8.77;;;;;;;2.89;68.05;94624.56;5117228;28;20224;-66
2022/03/07 10:45:12;;;;;;;10.75;9.82;;;;;;;2.92;68.30;94626.66;5118286;28;20182;-67
2022/03/07 10:47:39;;;;;;;10.35;9.35;;;;;;;2.95;68.62;94620.59;5119355;28;20194;-67
2022/03/07 10:50:08;;;;;;;10.55;9.65;;;;;;;3.01;69.20;94613.06;5117201;28;20199;-67
2022/03/07 10:52:37;;;;;;;11.23;10.23;;;;;;;3.01;67.93;94616.59;5118547;28;20658;-67
2022/03/07 10:55:05;;;;;;;11.43;10.43;;;;;;;3.02;68.62;94611.97;5118190;28;20184;-67
2022/03/07 10:57:36;;;;;;;8.80;8.00;;;;;;;3.03;67.67;94608.91;5118161;28;20199;-67
2022/03/07 11:00:10;;;;;;;10.23;9.23;;;;;;;3.04;67.55;94609.72;5117434;28;20184;-67
2022/03/07 11:02:41;;;;;;;10.48;9.48;;;;;;;3.02;67.69;94607.31;5118106;28;20184;-67
2022/03/07 11:05:09;;;;;;;8.80;8.10;;;;;;;3.05;66.99;94606.69;5118007;28;20193;-66
2022/03/07 11:07:38;;;;;;;10.93;9.85;;;;;;;3.01;66.57;94608.41;5117870;28;20194;-66
2022/03/07 11:10:06;;;;;;;11.65;10.65;;;;;;;3.07;67.68;94609.88;5117967;28;20187;-66
2022/03/07 11:12:34;;;;;;;13.70;12.40;;;;;;;3.08;66.33;94605.22;5117987;28;20218;-67
2022/03/07 11:15:08;;;;;;;10.15;9.25;;;;;;;3.04;66.59;94601.53;5117184;28;20205;-65
2022/03/07 11:17:37;;;;;;;11.20;10.20;;;;;;;3.05;66.17;94612.13;5117150;28;20203;-65
2022/03/07 11:20:05;;;;;;;10.57;9.68;;;;;;;3.02;66.73;94601.88;5116917;28;20187;-64
2022/03/07 11:22:33;;;;;;;11.73;10.73;;;;;;;3.02;67.09;94599.16;5117181;28;20176;-64
2022/03/07 11:25:00;;;;;;;9.80;8.85;;;;;;;3.01;67.10;94597.50;5116854;28;20270;-64
2022/03/07 11:27:27;;;;;;;9.88;9.07;;;;;;;3.02;67.47;94607.31;5117508;28;20206;-64
2022/03/07 11:29:55;;;;;;;10.40;9.50;;;;;;;3.08;67.73;94605.22;5117781;28;20241;-64
2022/03/07 11:32:22;;;;;;;10.20;9.23;;;;;;;3.09;67.59;94596.75;5116594;28;20220;-65
2022/03/07 11:34:57;;;;;;;9.85;9.05;;;;;;;3.08;66.96;94599.78;5117621;28;20611;-65